createdAt,value
2019-02-28T00:00:42.613Z,4.89
2019-02-28T00:01:47.342Z,4.88
2019-02-28T00:02:40.958Z,4.9
2019-02-28T00:03:40.708Z,4.83
2019-02-28T00:04:41.166Z,4.84
2019-02-28T00:05:41.263Z,4.89
2019-02-28T00:06:45.322Z,4.95
2019-02-28T00:07:40.765Z,4.9
2019-02-28T00:08:41.317Z,4.96
2019-02-28T00:09:40.973Z,4.94
2019-02-28T00:10:42.588Z,4.88
2019-02-28T00:11:40.867Z,4.86
2019-02-28T00:12:41.200Z,4.91
2019-02-28T00:13:40.898Z,4.91
2019-02-28T00:14:40.847Z,4.84
2019-02-28T00:15:41.130Z,4.89
2019-02-28T00:16:40.859Z,4.86
2019-02-28T00:17:43.924Z,4.85
2019-02-28T00:18:40.953Z,4.85
2019-02-28T00:19:41.568Z,4.93
2019-02-28T00:20:40.738Z,4.86
2019-02-28T00:21:41.534Z,4.9
2019-02-28T00:22:40.710Z,4.95
2019-02-28T00:23:41.169Z,4.94
2019-02-28T00:24:40.993Z,4.94
2019-02-28T00:25:42.566Z,4.96
2019-02-28T00:26:48.076Z,4.9
2019-02-28T00:27:41.110Z,4.96
2019-02-28T00:28:41.212Z,4.98
2019-02-28T00:29:40.814Z,4.97
2019-02-28T00:30:41.800Z,4.94
2019-02-28T00:31:40.813Z,4.94
2019-02-28T00:32:41.166Z,4.93
2019-02-28T00:33:40.765Z,4.92
2019-02-28T00:34:40.713Z,4.91
2019-02-28T00:35:45.381Z,4.93
2019-02-28T00:36:42.546Z,4.96
2019-02-28T00:37:40.660Z,4.87
2019-02-28T00:38:40.723Z,4.9
2019-02-28T00:39:40.752Z,5.01
2019-02-28T00:40:41.316Z,5.03
2019-02-28T00:41:44.875Z,5.03
2019-02-28T00:42:40.999Z,4.97
2019-02-28T00:43:40.680Z,4.99
2019-02-28T00:44:40.683Z,4.98
2019-02-28T00:45:41.108Z,4.97
2019-02-28T00:46:45.568Z,4.95
2019-02-28T00:47:40.854Z,5.01
2019-02-28T00:48:40.680Z,5.01
2019-02-28T00:49:40.743Z,4.98
2019-02-28T00:50:40.687Z,5.01
2019-02-28T00:51:40.814Z,4.98
2019-02-28T00:52:42.529Z,5.01
2019-02-28T00:53:40.837Z,5.02
2019-02-28T00:54:44.682Z,5
2019-02-28T00:55:40.714Z,5.04
2019-02-28T00:56:41.253Z,5.07
2019-02-28T00:57:42.230Z,5.08
2019-02-28T00:58:41.205Z,5.07
2019-02-28T00:59:40.709Z,5.12
2019-02-28T01:00:41.126Z,5.17
2019-02-28T01:01:47.130Z,5.23
2019-02-28T01:02:41.123Z,5.18
2019-02-28T01:03:40.770Z,5.2
2019-02-28T01:04:40.830Z,5.18
2019-02-28T01:05:40.779Z,5.15
2019-02-28T01:06:42.730Z,5.22
2019-02-28T01:07:40.684Z,5.23
2019-02-28T01:08:40.621Z,5.23
2019-02-28T01:09:40.647Z,5.16
2019-02-28T01:10:40.918Z,5.23
2019-02-28T01:11:40.463Z,5.21
2019-02-28T01:12:40.707Z,5.22
2019-02-28T01:13:40.895Z,5.31
2019-02-28T01:14:40.996Z,5.28
2019-02-28T01:15:45.958Z,5.29
2019-02-28T01:16:41.697Z,5.32
2019-02-28T01:17:40.728Z,5.3
2019-02-28T01:18:42.477Z,5.29
2019-02-28T01:19:42.526Z,5.32
2019-02-28T01:20:40.716Z,5.33
2019-02-28T01:21:41.410Z,5.28
2019-02-28T01:22:41.170Z,5.28
2019-02-28T01:23:40.629Z,5.33
2019-02-28T01:24:41.438Z,5.35
2019-02-28T01:25:41.130Z,5.34
2019-02-28T01:26:47.580Z,5.32
2019-02-28T01:27:40.878Z,5.35
2019-02-28T01:28:41.576Z,5.36
2019-02-28T01:29:42.513Z,5.34
2019-02-28T01:30:41.393Z,5.3
2019-02-28T01:31:43.605Z,5.33
2019-02-28T01:32:40.619Z,5.33
2019-02-28T01:33:40.600Z,5.34
2019-02-28T01:34:40.659Z,5.37
2019-02-28T01:35:41.729Z,5.34
2019-02-28T01:36:40.731Z,5.36
2019-02-28T01:37:41.042Z,5.34
2019-02-28T01:38:42.447Z,5.34
2019-02-28T01:39:40.768Z,5.33
2019-02-28T01:40:41.543Z,5.35
2019-02-28T01:41:46.058Z,5.35
2019-02-28T01:42:40.767Z,5.36
2019-02-28T01:43:40.831Z,5.37
2019-02-28T01:44:40.734Z,5.38
2019-02-28T01:45:44.547Z,5.35
2019-02-28T01:46:40.899Z,5.36
2019-02-28T01:47:40.638Z,5.32
2019-02-28T01:48:42.441Z,5.35
2019-02-28T01:49:40.962Z,5.34
2019-02-28T01:50:40.943Z,5.35
2019-02-28T01:51:41.208Z,5.38
2019-02-28T01:52:46.352Z,5.37
2019-02-28T01:53:42.298Z,5.32
2019-02-28T01:54:40.612Z,5.34
2019-02-28T01:55:40.965Z,5.33
2019-02-28T01:56:40.705Z,5.37
2019-02-28T01:57:44.598Z,5.35
2019-02-28T01:58:40.669Z,5.3
2019-02-28T01:59:41.142Z,5.29
2019-02-28T02:00:40.705Z,5.27
2019-02-28T02:01:41.866Z,5.3
2019-02-28T02:02:40.709Z,5.31
2019-02-28T02:03:41.997Z,5.29
2019-02-28T02:04:46.815Z,5.29
2019-02-28T02:05:40.815Z,5.28
2019-02-28T02:06:41.228Z,5.34
2019-02-28T02:07:40.675Z,5.28
2019-02-28T02:08:40.837Z,5.29
2019-02-28T02:09:47.143Z,5.28
2019-02-28T02:10:40.542Z,5.32
2019-02-28T02:11:40.673Z,5.28
2019-02-28T02:12:40.728Z,5.31
2019-02-28T02:13:41.191Z,5.35
2019-02-28T02:14:46.109Z,5.38
2019-02-28T02:15:40.651Z,5.4
2019-02-28T02:16:40.550Z,5.41
2019-02-28T02:17:42.617Z,5.37
2019-02-28T02:18:44.530Z,5.39
2019-02-28T02:19:40.563Z,5.4
2019-02-28T02:20:40.823Z,5.36
2019-02-28T02:21:40.729Z,5.35
2019-02-28T02:22:45.869Z,5.33
2019-02-28T02:23:40.541Z,5.37
2019-02-28T02:24:40.520Z,5.41
2019-02-28T02:25:40.951Z,5.34
2019-02-28T02:26:46.079Z,5.39
2019-02-28T02:27:41.542Z,5.36
2019-02-28T02:28:40.601Z,5.4
2019-02-28T02:29:40.611Z,5.36
2019-02-28T02:30:40.789Z,5.36
2019-02-28T02:31:44.022Z,5.35
2019-02-28T02:32:40.797Z,5.36
2019-02-28T02:33:40.757Z,5.39
2019-02-28T02:34:40.856Z,5.44
2019-02-28T02:35:43.805Z,5.41
2019-02-28T02:36:41.141Z,5.42
2019-02-28T02:37:40.638Z,5.42
2019-02-28T02:38:42.057Z,5.38
2019-02-28T02:39:42.410Z,5.35
2019-02-28T02:40:40.592Z,5.3
2019-02-28T02:41:40.857Z,5.37
2019-02-28T02:42:50.298Z,5.31
2019-02-28T02:43:41.122Z,5.31
2019-02-28T02:44:40.644Z,5.39
2019-02-28T02:45:44.139Z,5.38
2019-02-28T02:46:41.210Z,5.38
2019-02-28T02:47:40.606Z,5.4
2019-02-28T02:48:43.599Z,5.36
2019-02-28T02:49:41.195Z,5.39
2019-02-28T02:50:42.400Z,5.45
2019-02-28T02:51:50.891Z,5.45
2019-02-28T02:52:40.522Z,5.42
2019-02-28T02:53:43.655Z,5.49
2019-02-28T02:54:42.359Z,5.45
2019-02-28T02:55:41.155Z,5.44
2019-02-28T02:56:42.506Z,5.44
2019-02-28T02:57:40.758Z,5.4
2019-02-28T02:58:40.770Z,5.38
2019-02-28T02:59:40.646Z,5.38
2019-02-28T03:00:40.922Z,5.41
2019-02-28T03:01:40.539Z,5.43
2019-02-28T03:02:40.675Z,5.41
2019-02-28T03:03:44.863Z,5.38
2019-02-28T03:04:41.858Z,5.37
2019-02-28T03:05:40.635Z,5.33
2019-02-28T03:06:40.497Z,5.32
2019-02-28T03:07:40.828Z,5.36
2019-02-28T03:08:42.371Z,5.41
2019-02-28T03:09:45.003Z,5.38
2019-02-28T03:10:40.564Z,5.39
2019-02-28T03:11:40.668Z,5.42
2019-02-28T03:12:41.515Z,5.38
2019-02-28T03:13:44.497Z,5.4
2019-02-28T03:14:40.799Z,5.4
2019-02-28T03:15:40.690Z,5.32
2019-02-28T03:16:40.882Z,5.37
2019-02-28T03:17:49.517Z,5.42
2019-02-28T03:18:41.541Z,5.36
2019-02-28T03:19:41.234Z,5.35
2019-02-28T03:20:42.758Z,5.33
2019-02-28T03:21:42.318Z,5.39
2019-02-28T03:22:40.498Z,5.36
2019-02-28T03:23:40.954Z,5.38
2019-02-28T03:24:40.754Z,5.4
2019-02-28T03:25:40.741Z,5.4
2019-02-28T03:26:43.673Z,5.31
2019-02-28T03:27:41.453Z,5.35
2019-02-28T03:28:40.616Z,5.33
2019-02-28T03:29:45.130Z,5.36
2019-02-28T03:30:40.613Z,5.34
2019-02-28T03:31:40.499Z,5.37
2019-02-28T03:32:43.549Z,5.34
2019-02-28T03:33:40.953Z,5.28
2019-02-28T03:34:56.120Z,5.26
2019-02-28T03:35:44.599Z,5.31
2019-02-28T03:36:40.841Z,5.28
2019-02-28T03:37:40.528Z,5.23
2019-02-28T03:38:50.375Z,5.28
2019-02-28T03:39:40.765Z,5.3
2019-02-28T03:40:41.589Z,5.26
2019-02-28T03:41:40.476Z,5.31
2019-02-28T03:42:40.585Z,5.24
2019-02-28T03:43:44.345Z,5.26
2019-02-28T03:44:41.376Z,5.27
2019-02-28T03:45:40.565Z,5.21
2019-02-28T03:46:48.073Z,5.27
2019-02-28T03:47:40.498Z,5.21
2019-02-28T03:48:42.299Z,5.26
2019-02-28T03:49:50.230Z,5.25
2019-02-28T03:50:40.587Z,5.23
2019-02-28T03:51:40.539Z,5.23
2019-02-28T03:52:45.465Z,5.24
2019-02-28T03:53:40.576Z,5.22
2019-02-28T03:54:41.467Z,5.17
2019-02-28T03:55:41.870Z,5.22
2019-02-28T03:56:40.989Z,5.21
2019-02-28T03:57:42.350Z,5.19
2019-02-28T03:58:43.462Z,5.21
2019-02-28T03:59:40.876Z,5.2
2019-02-28T04:00:40.844Z,5.18
2019-02-28T04:01:46.710Z,5.18
2019-02-28T04:02:40.511Z,5.1
2019-02-28T04:03:41.024Z,5.14
2019-02-28T04:04:50.697Z,5.12
2019-02-28T04:05:40.713Z,5.15
2019-02-28T04:06:41.313Z,5.16
2019-02-28T04:07:40.510Z,5.15
2019-02-28T04:08:40.419Z,5.16
2019-02-28T04:09:45.652Z,5.16
2019-02-28T04:10:40.467Z,5.13
2019-02-28T04:11:41.100Z,5.12
2019-02-28T04:12:47.385Z,5.14
2019-02-28T04:13:40.482Z,5.11
2019-02-28T04:14:40.689Z,5.07
2019-02-28T04:16:10.241Z,5.03
2019-02-28T04:16:40.424Z,4.99
2019-02-28T04:17:40.613Z,4.99
2019-02-28T04:18:46.998Z,5.01
2019-02-28T04:19:41.140Z,5.04
2019-02-28T04:20:41.019Z,5.01
2019-02-28T04:21:48.079Z,5.08
2019-02-28T04:22:41.160Z,5.07
2019-02-28T04:23:40.417Z,5.08
2019-02-28T04:24:40.649Z,5.1
2019-02-28T04:25:40.681Z,5.05
2019-02-28T04:26:40.575Z,5.04
2019-02-28T04:27:42.394Z,5
2019-02-28T04:28:40.723Z,5.02
2019-02-28T04:29:40.490Z,5.04
2019-02-28T04:30:44.420Z,5.04
2019-02-28T04:31:40.405Z,5.05
2019-02-28T04:32:40.692Z,5.04
2019-02-28T04:33:40.597Z,5.02
2019-02-28T04:34:40.387Z,5.01
2019-02-28T04:35:40.418Z,4.98
2019-02-28T04:36:41.305Z,5.06
2019-02-28T04:37:47.586Z,5.02
2019-02-28T04:38:40.341Z,5.01
2019-02-28T04:39:41.258Z,5.01
2019-02-28T04:40:40.639Z,5
2019-02-28T04:41:40.427Z,4.98
2019-02-28T04:42:40.850Z,4.99
2019-02-28T04:43:45.271Z,4.95
2019-02-28T04:44:40.874Z,4.94
2019-02-28T04:45:40.454Z,4.99
2019-02-28T04:46:40.883Z,4.99
2019-02-28T04:47:42.093Z,5
2019-02-28T04:48:40.569Z,4.98
2019-02-28T04:49:40.730Z,4.99
2019-02-28T04:50:41.101Z,4.99
2019-02-28T04:51:41.378Z,5
2019-02-28T04:52:48.462Z,5
2019-02-28T04:53:40.315Z,4.96
2019-02-28T04:54:40.519Z,4.92
2019-02-28T04:55:42.186Z,4.9
2019-02-28T04:56:46.788Z,4.95
2019-02-28T04:57:40.315Z,4.92
2019-02-28T04:58:40.133Z,4.95
2019-02-28T04:59:40.540Z,4.96
2019-02-28T05:00:40.387Z,4.95
2019-02-28T05:01:40.422Z,4.96
2019-02-28T05:02:40.347Z,4.92
2019-02-28T05:03:41.205Z,4.95
2019-02-28T05:04:41.618Z,4.94
2019-02-28T05:05:40.576Z,4.9
2019-02-28T05:06:41.479Z,4.91
2019-02-28T05:07:40.915Z,4.88
2019-02-28T05:08:40.469Z,4.85
2019-02-28T05:09:40.503Z,4.84
2019-02-28T05:10:41.149Z,4.86
2019-02-28T05:11:40.442Z,4.84
2019-02-28T05:12:41.500Z,4.84
2019-02-28T05:13:41.423Z,4.9
2019-02-28T05:14:40.314Z,4.92
2019-02-28T05:15:41.336Z,4.9
2019-02-28T05:16:47.617Z,4.91
2019-02-28T05:17:40.374Z,4.92
2019-02-28T05:18:40.688Z,4.94
2019-02-28T05:19:40.598Z,4.93
2019-02-28T05:20:46.233Z,4.95
2019-02-28T05:21:40.323Z,4.94
2019-02-28T05:22:40.282Z,4.95
2019-02-28T05:23:42.135Z,4.94
2019-02-28T05:24:43.930Z,4.91
2019-02-28T05:25:41.151Z,4.86
2019-02-28T05:26:40.870Z,4.92
2019-02-28T05:27:41.882Z,4.9
2019-02-28T05:28:41.707Z,4.92
2019-02-28T05:29:45.091Z,4.93
2019-02-28T05:30:41.743Z,4.94
2019-02-28T05:31:40.335Z,4.95
2019-02-28T05:32:40.700Z,4.92
2019-02-28T05:33:43.078Z,4.92
2019-02-28T05:34:40.588Z,4.93
2019-02-28T05:35:40.587Z,4.92
2019-02-28T05:36:40.215Z,4.92
2019-02-28T05:37:47.288Z,4.88
2019-02-28T05:38:40.599Z,4.91
2019-02-28T05:39:40.400Z,4.91
2019-02-28T05:40:41.687Z,4.89
2019-02-28T05:41:40.398Z,4.93
2019-02-28T05:42:40.749Z,4.95
2019-02-28T05:43:40.400Z,4.92
2019-02-28T05:44:41.214Z,4.88
2019-02-28T05:45:40.444Z,4.85
2019-02-28T05:46:40.456Z,4.87
2019-02-28T05:47:47.657Z,4.9
2019-02-28T05:48:40.475Z,4.97
2019-02-28T05:49:42.216Z,4.92
2019-02-28T05:50:41.308Z,4.95
2019-02-28T05:51:40.359Z,4.92
2019-02-28T05:52:41.122Z,4.95
2019-02-28T05:53:42.889Z,4.95
2019-02-28T05:54:40.685Z,4.95
2019-02-28T05:55:40.300Z,4.92
2019-02-28T05:56:41.118Z,4.98
2019-02-28T05:57:45.163Z,4.97
2019-02-28T05:58:40.407Z,4.92
2019-02-28T05:59:40.653Z,4.98
2019-02-28T06:00:40.341Z,4.96
2019-02-28T06:01:47.905Z,4.97
2019-02-28T06:02:40.280Z,4.99
2019-02-28T06:03:40.577Z,4.92
2019-02-28T06:04:40.467Z,4.93
2019-02-28T06:05:40.201Z,4.96
2019-02-28T06:06:40.245Z,4.93
2019-02-28T06:07:40.499Z,4.92
2019-02-28T06:08:40.610Z,4.9
2019-02-28T06:09:40.373Z,4.94
2019-02-28T06:10:40.405Z,4.95
2019-02-28T06:11:40.853Z,4.95
2019-02-28T06:12:45.275Z,4.93
2019-02-28T06:13:40.307Z,4.94
2019-02-28T06:14:41.074Z,4.91
2019-02-28T06:15:40.311Z,4.92
2019-02-28T06:16:40.175Z,4.86
2019-02-28T06:17:40.373Z,4.86
2019-02-28T06:18:40.296Z,4.84
2019-02-28T06:19:44.489Z,4.9
2019-02-28T06:20:40.196Z,4.91
2019-02-28T06:21:40.182Z,4.88
2019-02-28T06:22:40.345Z,4.91
2019-02-28T06:23:41.858Z,4.9
2019-02-28T06:24:40.198Z,4.93
2019-02-28T06:25:40.206Z,4.89
2019-02-28T06:26:40.830Z,4.93
2019-02-28T06:27:50.851Z,4.9
2019-02-28T06:28:40.302Z,4.93
2019-02-28T06:29:40.672Z,4.92
2019-02-28T06:30:42.936Z,4.87
2019-02-28T06:31:40.224Z,4.91
2019-02-28T06:32:40.711Z,4.93
2019-02-28T06:33:40.462Z,4.91
2019-02-28T06:34:43.272Z,4.93
2019-02-28T06:35:40.282Z,4.97
2019-02-28T06:36:42.026Z,4.99
2019-02-28T06:37:40.560Z,5
2019-02-28T06:38:40.263Z,5.01
2019-02-28T06:39:40.397Z,5
2019-02-28T06:40:40.277Z,5.07
2019-02-28T06:41:41.069Z,5.06
2019-02-28T06:42:40.275Z,5.07
2019-02-28T06:43:40.308Z,5.1
2019-02-28T06:44:40.208Z,5.09
2019-02-28T06:45:40.137Z,5.07
2019-02-28T06:46:41.019Z,5.08
2019-02-28T06:47:40.348Z,5.05
2019-02-28T06:48:40.248Z,5.11
2019-02-28T06:49:42.266Z,5.08
2019-02-28T06:50:40.358Z,5.11
2019-02-28T06:51:41.997Z,5.14
2019-02-28T06:52:40.478Z,5.16
2019-02-28T06:53:40.144Z,5.13
2019-02-28T06:54:41.349Z,5.16
2019-02-28T06:55:40.276Z,5.18
2019-02-28T06:56:40.809Z,5.19
2019-02-28T06:57:40.444Z,5.16
2019-02-28T06:58:40.174Z,5.15
2019-02-28T06:59:39.952Z,5.17
2019-02-28T07:00:40.450Z,5.16
2019-02-28T07:01:40.155Z,5.22
2019-02-28T07:02:40.126Z,5.23
2019-02-28T07:03:42.767Z,5.18
2019-02-28T07:04:41.058Z,5.21
2019-02-28T07:05:40.267Z,5.16
2019-02-28T07:06:40.125Z,5.2
2019-02-28T07:07:40.292Z,5.21
2019-02-28T07:08:40.120Z,5.23
2019-02-28T07:09:40.177Z,5.19
2019-02-28T07:10:47.749Z,5.22
2019-02-28T07:11:40.610Z,5.21
2019-02-28T07:12:40.314Z,5.25
2019-02-28T07:13:41.367Z,5.25
2019-02-28T07:14:40.153Z,5.21
2019-02-28T07:15:40.211Z,5.25
2019-02-28T07:16:41.038Z,5.27
2019-02-28T07:17:47.691Z,5.27
2019-02-28T07:18:40.453Z,5.22
2019-02-28T07:19:40.995Z,5.3
2019-02-28T07:20:40.578Z,5.24
2019-02-28T07:21:44.615Z,5.31
2019-02-28T07:22:42.006Z,5.25
2019-02-28T07:23:40.118Z,5.34
2019-02-28T07:24:41.986Z,5.39
2019-02-28T07:25:40.499Z,5.43
2019-02-28T07:26:40.623Z,5.43
2019-02-28T07:27:40.110Z,5.42
2019-02-28T07:28:40.348Z,5.42
2019-02-28T07:29:43.742Z,5.41
2019-02-28T07:30:40.127Z,5.4
2019-02-28T07:31:40.241Z,5.44
2019-02-28T07:32:40.561Z,5.44
2019-02-28T07:33:45.447Z,5.45
2019-02-28T07:34:40.183Z,5.41
2019-02-28T07:35:40.300Z,5.43
2019-02-28T07:36:46.072Z,5.35
2019-02-28T07:37:40.242Z,5.39
2019-02-28T07:38:40.255Z,5.41
2019-02-28T07:39:41.332Z,5.39
2019-02-28T07:40:40.437Z,5.43
2019-02-28T07:41:41.638Z,5.43
2019-02-28T07:42:40.277Z,5.42
2019-02-28T07:43:40.331Z,5.46
2019-02-28T07:44:40.445Z,5.43
2019-02-28T07:45:40.204Z,5.48
2019-02-28T07:46:43.549Z,5.43
2019-02-28T07:47:41.918Z,5.5
2019-02-28T07:48:40.203Z,5.57
2019-02-28T07:49:40.279Z,5.55
2019-02-28T07:50:40.113Z,5.59
2019-02-28T07:51:41.919Z,5.63
2019-02-28T07:52:40.126Z,5.6
2019-02-28T07:53:42.330Z,5.55
2019-02-28T07:54:40.390Z,5.6
2019-02-28T07:55:40.248Z,5.62
2019-02-28T07:56:44.527Z,5.56
2019-02-28T07:57:40.914Z,5.61
2019-02-28T07:58:40.332Z,5.54
2019-02-28T07:59:42.988Z,5.61
2019-02-28T08:00:40.529Z,5.6
2019-02-28T08:01:41.230Z,5.53
2019-02-28T08:02:40.206Z,5.62
2019-02-28T08:03:45.102Z,5.59
2019-02-28T08:04:40.755Z,5.56
2019-02-28T08:05:40.330Z,5.58
2019-02-28T08:06:40.850Z,5.67
2019-02-28T08:07:40.249Z,5.61
2019-02-28T08:08:40.153Z,5.56
2019-02-28T08:09:41.734Z,5.59
2019-02-28T08:10:40.110Z,5.67
2019-02-28T08:11:40.154Z,5.72
2019-02-28T08:12:40.176Z,5.7
2019-02-28T08:13:40.320Z,5.66
2019-02-28T08:14:48.160Z,5.69
2019-02-28T08:15:40.856Z,5.7
2019-02-28T08:16:40.168Z,5.69
2019-02-28T08:17:44.856Z,5.78
2019-02-28T08:18:40.376Z,5.78
2019-02-28T08:19:40.008Z,5.74
2019-02-28T08:20:40.142Z,5.75
2019-02-28T08:21:50.663Z,5.73
2019-02-28T08:22:40.121Z,5.73
2019-02-28T08:23:40.316Z,5.73
2019-02-28T08:24:40.091Z,5.76
2019-02-28T08:25:43.699Z,5.82
2019-02-28T08:26:43.938Z,5.88
2019-02-28T08:27:40.083Z,5.84
2019-02-28T08:28:40.108Z,5.84
2019-02-28T08:29:46.149Z,5.87
2019-02-28T08:30:40.075Z,5.88
2019-02-28T08:31:40.469Z,5.9
2019-02-28T08:32:47.438Z,5.9
2019-02-28T08:33:40.034Z,5.98
2019-02-28T08:34:40.220Z,5.88
2019-02-28T08:35:40.021Z,5.92
2019-02-28T08:36:47.690Z,5.96
2019-02-28T08:37:40.296Z,6.02
2019-02-28T08:38:40.189Z,6.03
2019-02-28T08:39:42.360Z,6.01
2019-02-28T08:40:41.225Z,5.95
2019-02-28T08:41:39.823Z,5.94
2019-02-28T08:42:40.020Z,5.99
2019-02-28T08:43:39.817Z,5.94
2019-02-28T08:44:39.801Z,5.97
2019-02-28T08:45:40.036Z,6.05
2019-02-28T08:46:39.813Z,6.06
2019-02-28T08:47:39.820Z,6.08
2019-02-28T08:48:39.806Z,6.08
2019-02-28T08:49:45.699Z,6.12
2019-02-28T08:50:39.828Z,6.13
2019-02-28T08:51:39.799Z,6.14
2019-02-28T08:52:42.463Z,6.16
2019-02-28T08:53:39.833Z,6.18
2019-02-28T08:54:39.788Z,6.19
2019-02-28T08:55:44.641Z,6.16
2019-02-28T08:56:39.777Z,6.22
2019-02-28T08:57:39.792Z,6.2
2019-02-28T08:58:39.802Z,6.22
2019-02-28T08:59:39.822Z,6.2
2019-02-28T09:00:39.944Z,6.26
2019-02-28T09:01:44.451Z,6.25
2019-02-28T09:02:39.880Z,6.31
2019-02-28T09:03:40.807Z,6.25
2019-02-28T09:04:51.149Z,6.34
2019-02-28T09:05:39.770Z,6.23
2019-02-28T09:06:41.928Z,6.28
2019-02-28T09:07:39.808Z,6.26
2019-02-28T09:08:39.764Z,6.32
2019-02-28T09:09:39.769Z,6.3
2019-02-28T09:10:39.804Z,6.33
2019-02-28T09:11:39.828Z,6.32
2019-02-28T09:12:39.773Z,6.35
2019-02-28T09:13:43.833Z,6.36
2019-02-28T09:14:39.781Z,6.45
2019-02-28T09:15:39.762Z,6.38
2019-02-28T09:16:40.480Z,6.45
2019-02-28T09:17:39.778Z,6.43
2019-02-28T09:18:39.781Z,6.38
2019-02-28T09:19:39.748Z,6.46
2019-02-28T09:20:45.409Z,6.42
2019-02-28T09:21:41.461Z,6.42
2019-02-28T09:22:39.926Z,6.52
2019-02-28T09:23:39.984Z,6.5
2019-02-28T09:24:39.927Z,6.55
2019-02-28T09:25:40.012Z,6.47
2019-02-28T09:26:39.914Z,6.53
2019-02-28T09:27:39.953Z,6.54
2019-02-28T09:28:39.897Z,6.56
2019-02-28T09:29:39.885Z,6.54
2019-02-28T09:30:39.903Z,6.52
2019-02-28T09:31:40.018Z,6.58
2019-02-28T09:32:39.899Z,6.54
2019-02-28T09:33:39.883Z,6.52
2019-02-28T09:34:41.492Z,6.51
2019-02-28T09:35:46.683Z,6.56
2019-02-28T09:36:39.902Z,6.54
2019-02-28T09:37:39.911Z,6.58
2019-02-28T09:38:46.143Z,6.59
2019-02-28T09:39:40.207Z,6.56
2019-02-28T09:40:41.539Z,6.6
2019-02-28T09:41:41.475Z,6.59
2019-02-28T09:42:39.893Z,6.58
2019-02-28T09:43:39.893Z,6.64
2019-02-28T09:44:40.038Z,6.63
2019-02-28T09:45:56.484Z,6.66
2019-02-28T09:46:39.907Z,6.62
2019-02-28T09:47:39.870Z,6.63
2019-02-28T09:48:54.635Z,6.61
2019-02-28T09:49:39.960Z,6.66
2019-02-28T09:50:39.962Z,6.67
2019-02-28T09:51:39.908Z,6.62
2019-02-28T09:52:42.850Z,6.62
2019-02-28T09:53:52.067Z,6.61
2019-02-28T09:54:39.897Z,6.64
2019-02-28T09:55:40.089Z,6.62
2019-02-28T09:56:45.516Z,6.68
2019-02-28T09:57:39.851Z,6.68
2019-02-28T09:58:39.841Z,6.7
2019-02-28T09:59:40.387Z,6.7
2019-02-28T10:00:39.930Z,6.73
2019-02-28T10:01:39.857Z,6.72
2019-02-28T10:02:45.397Z,6.7
2019-02-28T10:03:39.875Z,6.71
2019-02-28T10:04:39.844Z,6.72
2019-02-28T10:05:43.555Z,6.78
2019-02-28T10:06:39.972Z,6.78
2019-02-28T10:07:39.888Z,6.73
2019-02-28T10:08:39.881Z,6.78
2019-02-28T10:09:49.374Z,6.78
2019-02-28T10:10:39.874Z,6.77
2019-02-28T10:11:40.799Z,6.78
2019-02-28T10:12:43.391Z,6.8
2019-02-28T10:13:39.837Z,6.82
2019-02-28T10:14:40.003Z,6.82
2019-02-28T10:15:42.621Z,6.86
2019-02-28T10:16:53.527Z,6.83
2019-02-28T10:17:39.905Z,6.86
2019-02-28T10:18:41.071Z,6.86
2019-02-28T10:19:53.118Z,6.82
2019-02-28T10:20:39.854Z,6.82
2019-02-28T10:21:39.862Z,6.89
2019-02-28T10:22:39.879Z,6.91
2019-02-28T10:23:39.866Z,6.91
2019-02-28T10:24:40.467Z,6.88
2019-02-28T10:25:43.928Z,6.89
2019-02-28T10:26:39.865Z,6.89
2019-02-28T10:27:40.015Z,6.89
2019-02-28T10:28:39.841Z,6.92
2019-02-28T10:29:42.906Z,6.92
2019-02-28T10:30:39.830Z,6.91
2019-02-28T10:31:39.817Z,6.91
2019-02-28T10:33:39.824Z,6.95
2019-02-28T10:34:39.841Z,6.94
2019-02-28T10:35:39.834Z,6.95
2019-02-28T10:36:39.825Z,6.98
2019-02-28T10:38:39.735Z,7.03
2019-02-28T10:39:43.971Z,7.07
2019-02-28T10:40:40.167Z,7.06
2019-02-28T10:41:39.803Z,7.04
2019-02-28T10:42:41.598Z,7.04
2019-02-28T10:43:39.856Z,7.06
2019-02-28T10:44:39.803Z,7.09
2019-02-28T10:45:43.014Z,7.06
2019-02-28T10:46:39.635Z,7.08
2019-02-28T10:47:39.789Z,7.04
2019-02-28T10:48:51.260Z,7.05
2019-02-28T10:49:39.900Z,7.02
2019-02-28T10:50:39.807Z,7.04
2019-02-28T10:51:39.816Z,7.05
2019-02-28T10:52:39.905Z,7.05
2019-02-28T10:53:40.435Z,7.07
2019-02-28T10:54:39.810Z,7.07
2019-02-28T10:55:39.764Z,7.03
2019-02-28T10:56:39.947Z,7.08
2019-02-28T10:57:41.793Z,7.11
2019-02-28T10:58:39.806Z,7.09
2019-02-28T10:59:39.920Z,7.16
2019-02-28T11:00:39.834Z,7.1
2019-02-28T11:01:42.840Z,7.11
2019-02-28T11:02:39.963Z,7.14
2019-02-28T11:03:39.774Z,7.13
2019-02-28T11:04:44.253Z,7.08
2019-02-28T11:05:39.962Z,7.09
2019-02-28T11:06:39.776Z,7.11
2019-02-28T11:07:39.808Z,7.13
2019-02-28T11:08:40.363Z,7.12
2019-02-28T11:09:39.977Z,7.14
2019-02-28T11:10:39.775Z,7.17
2019-02-28T11:11:46.339Z,7.11
2019-02-28T11:12:39.769Z,7.15
2019-02-28T11:13:39.803Z,7.16
2019-02-28T11:14:40.051Z,7.17
2019-02-28T11:15:39.819Z,7.19
2019-02-28T11:16:39.753Z,7.18
2019-02-28T11:17:39.741Z,7.2
2019-02-28T11:18:43.019Z,7.22
2019-02-28T11:19:39.770Z,7.25
2019-02-28T11:20:39.759Z,7.27
2019-02-28T11:21:39.966Z,7.3
2019-02-28T11:22:41.160Z,7.29
2019-02-28T11:23:39.761Z,7.28
2019-02-28T11:24:39.748Z,7.28
2019-02-28T11:25:39.767Z,7.29
2019-02-28T11:26:45.828Z,7.27
2019-02-28T11:27:40.089Z,7.3
2019-02-28T11:28:39.783Z,7.31
2019-02-28T11:29:39.759Z,7.25
2019-02-28T11:30:45.812Z,7.24
2019-02-28T11:31:39.748Z,7.24
2019-02-28T11:32:39.738Z,7.23
2019-02-28T11:33:40.683Z,7.25
2019-02-28T11:34:39.733Z,7.26
2019-02-28T11:35:39.734Z,7.3
2019-02-28T11:36:39.756Z,7.29
2019-02-28T11:37:46.309Z,7.32
2019-02-28T11:38:39.777Z,7.33
2019-02-28T11:39:39.729Z,7.33
2019-02-28T11:40:44.722Z,7.32
2019-02-28T11:41:44.539Z,7.39
2019-02-28T11:42:39.751Z,7.35
2019-02-28T11:43:40.291Z,7.36
2019-02-28T11:44:39.706Z,7.35
2019-02-28T11:45:39.798Z,7.38
2019-02-28T11:46:39.720Z,7.35
2019-02-28T11:47:43.584Z,7.36
2019-02-28T11:48:39.724Z,7.4
2019-02-28T11:49:39.718Z,7.38
2019-02-28T11:50:45.285Z,7.39
2019-02-28T11:51:39.758Z,7.42
2019-02-28T11:52:39.701Z,7.36
2019-02-28T11:54:39.713Z,7.38
2019-02-28T11:55:39.728Z,7.38
2019-02-28T11:56:39.734Z,7.4
2019-02-28T11:57:42.284Z,7.42
2019-02-28T11:58:39.755Z,7.44
2019-02-28T11:59:39.814Z,7.47
2019-02-28T12:00:39.791Z,7.49
2019-02-28T12:01:48.568Z,7.5
2019-02-28T12:03:01.229Z,7.52
2019-02-28T12:03:39.856Z,7.54
2019-02-28T12:04:41.390Z,7.5
2019-02-28T12:05:39.673Z,7.45
2019-02-28T12:06:39.755Z,7.46
2019-02-28T12:07:39.687Z,7.52
2019-02-28T12:08:45.883Z,7.55
2019-02-28T12:09:39.726Z,7.55
2019-02-28T12:10:39.754Z,7.55
2019-02-28T12:11:39.745Z,7.54
2019-02-28T12:12:45.555Z,7.57
2019-02-28T12:13:39.672Z,7.52
2019-02-28T12:14:39.693Z,7.59
2019-02-28T12:15:40.019Z,7.59
2019-02-28T12:16:45.970Z,7.61
2019-02-28T12:17:39.722Z,7.58
2019-02-28T12:18:41.219Z,7.57
2019-02-28T12:19:39.704Z,7.58
2019-02-28T12:20:39.697Z,7.46
2019-02-28T12:21:49.879Z,7.53
2019-02-28T12:22:39.651Z,7.53
2019-02-28T12:23:39.682Z,7.51
2019-02-28T12:24:39.665Z,7.5
2019-02-28T12:25:43.780Z,7.52
2019-02-28T12:26:39.711Z,7.51
2019-02-28T12:27:39.713Z,7.58
2019-02-28T12:28:39.715Z,7.58
2019-02-28T12:29:39.664Z,7.52
2019-02-28T12:30:40.556Z,7.54
2019-02-28T12:31:39.676Z,7.48
2019-02-28T12:32:44.329Z,7.56
2019-02-28T12:33:39.687Z,7.46
2019-02-28T12:34:39.676Z,7.49
2019-02-28T12:35:40.909Z,7.51
2019-02-28T12:36:39.687Z,7.53
2019-02-28T12:37:39.638Z,7.54
2019-02-28T12:38:39.690Z,7.47
2019-02-28T12:39:39.641Z,7.52
2019-02-28T12:40:49.699Z,7.49
2019-02-28T12:41:40.373Z,7.5
2019-02-28T12:42:39.663Z,7.47
2019-02-28T12:43:41.764Z,7.5
2019-02-28T12:44:39.692Z,7.51
2019-02-28T12:45:39.686Z,7.53
2019-02-28T12:46:39.641Z,7.51
2019-02-28T12:47:42.492Z,7.52
2019-02-28T12:48:39.635Z,7.55
2019-02-28T12:49:39.685Z,7.57
2019-02-28T12:50:39.692Z,7.52
2019-02-28T12:51:40.427Z,7.47
2019-02-28T12:52:39.629Z,7.51
2019-02-28T12:53:39.663Z,7.53
2019-02-28T12:54:39.670Z,7.49
2019-02-28T12:55:40.340Z,7.51
2019-02-28T12:56:39.655Z,7.48
2019-02-28T12:57:39.715Z,7.53
2019-02-28T12:58:41.925Z,7.55
2019-02-28T12:59:47.268Z,7.52
2019-02-28T13:00:39.656Z,7.47
2019-02-28T13:01:39.627Z,7.5
2019-02-28T13:02:44.634Z,7.55
2019-02-28T13:03:39.623Z,7.62
2019-02-28T13:04:39.629Z,7.51
2019-02-28T13:05:39.638Z,7.5
2019-02-28T13:06:39.603Z,7.51
2019-02-28T13:07:39.635Z,7.44
2019-02-28T13:08:42.674Z,7.53
2019-02-28T13:09:39.633Z,7.53
2019-02-28T13:10:39.618Z,7.5
2019-02-28T13:11:39.609Z,7.51
2019-02-28T13:12:39.632Z,7.56
2019-02-28T13:13:39.661Z,7.48
2019-02-28T13:14:42.072Z,7.49
2019-02-28T13:15:39.587Z,7.51
2019-02-28T13:16:39.627Z,7.57
2019-02-28T13:17:39.617Z,7.49
2019-02-28T13:18:44.640Z,7.43
2019-02-28T13:19:39.603Z,7.43
2019-02-28T13:20:39.588Z,7.47
2019-02-28T13:21:39.622Z,7.47
2019-02-28T13:22:39.620Z,7.5
2019-02-28T13:23:39.651Z,7.54
2019-02-28T13:24:47.838Z,7.47